sensor_id;sensor_type;location;lat;lon;timestamp;P1;durP1;ratioP1;P2;durP2;ratioP2
64619;SDS011;51029;51.058;13.826;2024-02-28T00:00:00;142.57;;;47.67;;
64619;SDS011;51029;51.058;13.826;2024-02-28T00:02:27;125.27;;;47.50;;
64619;SDS011;51029;51.058;13.826;2024-02-28T00:04:53;119.43;;;46.03;;
64619;SDS011;51029;51.058;13.826;2024-02-28T00:07:19;118.43;;;44.70;;
64619;SDS011;51029;51.058;13.826;2024-02-28T00:09:45;140.90;;;47.77;;
64619;SDS011;51029;51.058;13.826;2024-02-28T00:12:11;138.60;;;47.10;;
64619;SDS011;51029;51.058;13.826;2024-02-28T00:14:37;117.73;;;46.00;;
64619;SDS011;51029;51.058;13.826;2024-02-28T00:17:03;109.57;;;44.67;;
64619;SDS011;51029;51.058;13.826;2024-02-28T00:19:29;109.57;;;42.80;;
64619;SDS011;51029;51.058;13.826;2024-02-28T00:21:55;103.97;;;43.10;;
64619;SDS011;51029;51.058;13.826;2024-02-28T00:24:21;104.57;;;41.43;;
64619;SDS011;51029;51.058;13.826;2024-02-28T00:26:47;107.73;;;42.00;;
64619;SDS011;51029;51.058;13.826;2024-02-28T00:29:13;98.53;;;43.17;;
64619;SDS011;51029;51.058;13.826;2024-02-28T00:31:39;104.77;;;42.47;;
64619;SDS011;51029;51.058;13.826;2024-02-28T00:34:05;120.47;;;45.27;;
64619;SDS011;51029;51.058;13.826;2024-02-28T00:36:33;112.40;;;43.20;;
64619;SDS011;51029;51.058;13.826;2024-02-28T00:38:59;113.47;;;44.27;;
64619;SDS011;51029;51.058;13.826;2024-02-28T00:41:25;97.03;;;42.17;;
64619;SDS011;51029;51.058;13.826;2024-02-28T00:43:51;96.07;;;40.60;;
64619;SDS011;51029;51.058;13.826;2024-02-28T00:46:17;90.00;;;40.30;;
64619;SDS011;51029;51.058;13.826;2024-02-28T00:48:43;91.40;;;39.87;;
64619;SDS011;51029;51.058;13.826;2024-02-28T00:51:09;87.27;;;38.17;;
64619;SDS011;51029;51.058;13.826;2024-02-28T00:53:35;82.27;;;37.43;;
64619;SDS011;51029;51.058;13.826;2024-02-28T00:56:00;73.80;;;35.93;;
64619;SDS011;51029;51.058;13.826;2024-02-28T00:58:26;78.07;;;36.73;;
64619;SDS011;51029;51.058;13.826;2024-02-28T01:00:54;74.03;;;36.67;;
64619;SDS011;51029;51.058;13.826;2024-02-28T01:03:21;69.43;;;36.40;;
64619;SDS011;51029;51.058;13.826;2024-02-28T01:05:48;69.70;;;35.87;;
64619;SDS011;51029;51.058;13.826;2024-02-28T01:08:14;82.00;;;37.90;;
64619;SDS011;51029;51.058;13.826;2024-02-28T01:10:42;83.73;;;37.10;;
64619;SDS011;51029;51.058;13.826;2024-02-28T01:13:08;74.80;;;37.17;;
64619;SDS011;51029;51.058;13.826;2024-02-28T01:15:34;82.30;;;37.27;;
64619;SDS011;51029;51.058;13.826;2024-02-28T01:18:00;76.43;;;36.30;;
64619;SDS011;51029;51.058;13.826;2024-02-28T01:20:26;78.57;;;38.57;;
64619;SDS011;51029;51.058;13.826;2024-02-28T01:22:51;85.00;;;38.60;;
64619;SDS011;51029;51.058;13.826;2024-02-28T01:25:17;92.57;;;41.53;;
64619;SDS011;51029;51.058;13.826;2024-02-28T01:27:43;81.17;;;37.83;;
64619;SDS011;51029;51.058;13.826;2024-02-28T01:30:10;83.60;;;37.83;;
64619;SDS011;51029;51.058;13.826;2024-02-28T01:32:36;83.50;;;38.73;;
64619;SDS011;51029;51.058;13.826;2024-02-28T01:35:02;88.77;;;37.60;;
64619;SDS011;51029;51.058;13.826;2024-02-28T01:37:28;70.63;;;34.63;;
64619;SDS011;51029;51.058;13.826;2024-02-28T01:39:54;76.97;;;35.10;;
64619;SDS011;51029;51.058;13.826;2024-02-28T01:42:20;77.87;;;35.63;;
64619;SDS011;51029;51.058;13.826;2024-02-28T01:44:47;74.47;;;35.03;;
64619;SDS011;51029;51.058;13.826;2024-02-28T01:47:17;69.70;;;33.47;;
64619;SDS011;51029;51.058;13.826;2024-02-28T01:49:43;68.63;;;34.33;;
64619;SDS011;51029;51.058;13.826;2024-02-28T01:52:09;67.30;;;32.40;;
64619;SDS011;51029;51.058;13.826;2024-02-28T01:54:36;66.17;;;32.97;;
64619;SDS011;51029;51.058;13.826;2024-02-28T01:57:02;71.20;;;33.77;;
64619;SDS011;51029;51.058;13.826;2024-02-28T01:59:28;60.13;;;30.83;;
64619;SDS011;51029;51.058;13.826;2024-02-28T02:01:55;73.33;;;32.27;;
64619;SDS011;51029;51.058;13.826;2024-02-28T02:04:21;72.40;;;32.13;;
64619;SDS011;51029;51.058;13.826;2024-02-28T02:06:47;71.57;;;31.70;;
64619;SDS011;51029;51.058;13.826;2024-02-28T02:09:13;85.60;;;33.57;;
64619;SDS011;51029;51.058;13.826;2024-02-28T02:11:39;76.67;;;32.17;;
64619;SDS011;51029;51.058;13.826;2024-02-28T02:14:05;78.60;;;33.77;;
64619;SDS011;51029;51.058;13.826;2024-02-28T02:16:31;80.10;;;33.27;;
64619;SDS011;51029;51.058;13.826;2024-02-28T02:18:57;76.40;;;32.47;;
64619;SDS011;51029;51.058;13.826;2024-02-28T02:21:24;74.20;;;31.60;;
64619;SDS011;51029;51.058;13.826;2024-02-28T02:23:51;73.77;;;32.40;;
64619;SDS011;51029;51.058;13.826;2024-02-28T02:26:17;90.33;;;33.57;;
64619;SDS011;51029;51.058;13.826;2024-02-28T02:28:43;67.73;;;30.53;;
64619;SDS011;51029;51.058;13.826;2024-02-28T02:31:11;74.30;;;31.30;;
64619;SDS011;51029;51.058;13.826;2024-02-28T02:33:37;64.80;;;30.57;;
64619;SDS011;51029;51.058;13.826;2024-02-28T02:36:03;61.77;;;28.80;;
64619;SDS011;51029;51.058;13.826;2024-02-28T02:38:29;67.87;;;28.87;;
64619;SDS011;51029;51.058;13.826;2024-02-28T02:40:55;71.60;;;29.80;;
64619;SDS011;51029;51.058;13.826;2024-02-28T02:43:21;70.60;;;30.93;;
64619;SDS011;51029;51.058;13.826;2024-02-28T02:45:46;69.07;;;28.93;;
64619;SDS011;51029;51.058;13.826;2024-02-28T02:48:12;58.50;;;27.50;;
64619;SDS011;51029;51.058;13.826;2024-02-28T02:50:38;67.43;;;28.07;;
64619;SDS011;51029;51.058;13.826;2024-02-28T02:53:06;62.97;;;27.83;;
64619;SDS011;51029;51.058;13.826;2024-02-28T02:55:32;70.87;;;28.37;;
64619;SDS011;51029;51.058;13.826;2024-02-28T02:57:58;59.47;;;26.93;;
64619;SDS011;51029;51.058;13.826;2024-02-28T03:00:25;79.03;;;30.93;;
64619;SDS011;51029;51.058;13.826;2024-02-28T03:02:51;78.73;;;31.87;;
64619;SDS011;51029;51.058;13.826;2024-02-28T03:05:16;73.53;;;31.40;;
64619;SDS011;51029;51.058;13.826;2024-02-28T03:07:42;81.53;;;32.87;;
64619;SDS011;51029;51.058;13.826;2024-02-28T03:10:08;72.53;;;31.40;;
64619;SDS011;51029;51.058;13.826;2024-02-28T03:12:35;77.07;;;31.57;;
64619;SDS011;51029;51.058;13.826;2024-02-28T03:15:01;89.37;;;31.83;;
64619;SDS011;51029;51.058;13.826;2024-02-28T03:17:28;80.00;;;31.17;;
64619;SDS011;51029;51.058;13.826;2024-02-28T03:19:54;84.30;;;31.83;;
64619;SDS011;51029;51.058;13.826;2024-02-28T03:22:19;82.10;;;31.20;;
64619;SDS011;51029;51.058;13.826;2024-02-28T03:24:45;83.83;;;31.87;;
64619;SDS011;51029;51.058;13.826;2024-02-28T03:27:11;80.20;;;31.63;;
64619;SDS011;51029;51.058;13.826;2024-02-28T03:29:37;86.23;;;31.93;;
64619;SDS011;51029;51.058;13.826;2024-02-28T03:32:03;84.97;;;32.03;;
64619;SDS011;51029;51.058;13.826;2024-02-28T03:34:29;89.03;;;32.57;;
64619;SDS011;51029;51.058;13.826;2024-02-28T03:36:55;88.17;;;33.07;;
64619;SDS011;51029;51.058;13.826;2024-02-28T03:39:21;93.67;;;32.97;;
64619;SDS011;51029;51.058;13.826;2024-02-28T03:41:47;95.77;;;33.93;;
64619;SDS011;51029;51.058;13.826;2024-02-28T03:44:13;85.70;;;32.47;;
64619;SDS011;51029;51.058;13.826;2024-02-28T03:46:39;90.60;;;35.10;;
64619;SDS011;51029;51.058;13.826;2024-02-28T03:49:05;81.27;;;33.37;;
64619;SDS011;51029;51.058;13.826;2024-02-28T03:51:31;73.97;;;31.30;;
64619;SDS011;51029;51.058;13.826;2024-02-28T03:53:57;88.87;;;34.17;;
64619;SDS011;51029;51.058;13.826;2024-02-28T03:56:26;79.63;;;30.97;;
64619;SDS011;51029;51.058;13.826;2024-02-28T03:58:52;73.43;;;31.50;;
64619;SDS011;51029;51.058;13.826;2024-02-28T04:01:18;82.87;;;33.23;;
64619;SDS011;51029;51.058;13.826;2024-02-28T04:03:44;66.50;;;29.13;;
64619;SDS011;51029;51.058;13.826;2024-02-28T04:06:11;73.03;;;29.23;;
64619;SDS011;51029;51.058;13.826;2024-02-28T04:08:37;75.03;;;29.17;;
64619;SDS011;51029;51.058;13.826;2024-02-28T04:11:03;67.63;;;29.50;;
64619;SDS011;51029;51.058;13.826;2024-02-28T04:13:29;59.07;;;27.80;;
64619;SDS011;51029;51.058;13.826;2024-02-28T04:15:55;73.87;;;29.70;;
64619;SDS011;51029;51.058;13.826;2024-02-28T04:18:21;62.30;;;26.70;;
64619;SDS011;51029;51.058;13.826;2024-02-28T04:20:47;64.50;;;27.70;;
64619;SDS011;51029;51.058;13.826;2024-02-28T04:23:13;59.53;;;26.13;;
64619;SDS011;51029;51.058;13.826;2024-02-28T04:25:39;62.93;;;27.53;;
64619;SDS011;51029;51.058;13.826;2024-02-28T04:28:06;64.43;;;27.87;;
64619;SDS011;51029;51.058;13.826;2024-02-28T04:30:33;64.07;;;27.47;;
64619;SDS011;51029;51.058;13.826;2024-02-28T04:32:59;60.30;;;26.03;;
64619;SDS011;51029;51.058;13.826;2024-02-28T04:35:25;61.27;;;25.93;;
64619;SDS011;51029;51.058;13.826;2024-02-28T04:37:51;53.73;;;24.63;;
64619;SDS011;51029;51.058;13.826;2024-02-28T04:40:17;54.70;;;25.13;;
64619;SDS011;51029;51.058;13.826;2024-02-28T04:42:43;58.60;;;24.47;;
64619;SDS011;51029;51.058;13.826;2024-02-28T04:45:09;54.10;;;24.20;;
64619;SDS011;51029;51.058;13.826;2024-02-28T04:47:36;55.10;;;23.17;;
64619;SDS011;51029;51.058;13.826;2024-02-28T04:50:02;50.60;;;22.83;;
64619;SDS011;51029;51.058;13.826;2024-02-28T04:52:34;51.77;;;21.93;;
64619;SDS011;51029;51.058;13.826;2024-02-28T04:55:00;53.30;;;22.07;;
64619;SDS011;51029;51.058;13.826;2024-02-28T04:57:26;50.93;;;21.43;;
64619;SDS011;51029;51.058;13.826;2024-02-28T04:59:52;56.40;;;22.73;;
64619;SDS011;51029;51.058;13.826;2024-02-28T05:02:18;57.43;;;22.47;;
64619;SDS011;51029;51.058;13.826;2024-02-28T05:04:46;59.03;;;23.23;;
64619;SDS011;51029;51.058;13.826;2024-02-28T05:07:12;66.23;;;23.83;;
64619;SDS011;51029;51.058;13.826;2024-02-28T05:09:38;60.33;;;23.07;;
64619;SDS011;51029;51.058;13.826;2024-02-28T05:12:04;57.20;;;22.67;;
64619;SDS011;51029;51.058;13.826;2024-02-28T05:14:30;61.70;;;23.83;;
64619;SDS011;51029;51.058;13.826;2024-02-28T05:16:56;60.10;;;23.30;;
64619;SDS011;51029;51.058;13.826;2024-02-28T05:19:22;58.50;;;23.93;;
64619;SDS011;51029;51.058;13.826;2024-02-28T05:21:48;55.47;;;23.87;;
64619;SDS011;51029;51.058;13.826;2024-02-28T05:24:14;57.90;;;24.93;;
64619;SDS011;51029;51.058;13.826;2024-02-28T05:26:40;65.77;;;25.47;;
64619;SDS011;51029;51.058;13.826;2024-02-28T05:29:06;64.93;;;26.17;;
64619;SDS011;51029;51.058;13.826;2024-02-28T05:31:33;70.00;;;27.13;;
64619;SDS011;51029;51.058;13.826;2024-02-28T05:33:59;77.53;;;27.50;;
64619;SDS011;51029;51.058;13.826;2024-02-28T05:36:28;75.10;;;29.07;;
64619;SDS011;51029;51.058;13.826;2024-02-28T05:38:55;66.80;;;28.97;;
64619;SDS011;51029;51.058;13.826;2024-02-28T05:41:21;85.30;;;30.83;;
64619;SDS011;51029;51.058;13.826;2024-02-28T05:43:47;98.37;;;29.20;;
64619;SDS011;51029;51.058;13.826;2024-02-28T05:46:14;74.97;;;28.73;;
64619;SDS011;51029;51.058;13.826;2024-02-28T05:48:43;79.57;;;27.03;;
64619;SDS011;51029;51.058;13.826;2024-02-28T05:51:10;68.30;;;25.80;;
64619;SDS011;51029;51.058;13.826;2024-02-28T05:53:36;65.30;;;25.37;;
64619;SDS011;51029;51.058;13.826;2024-02-28T05:56:03;69.67;;;26.03;;
64619;SDS011;51029;51.058;13.826;2024-02-28T05:58:29;62.47;;;24.70;;
64619;SDS011;51029;51.058;13.826;2024-02-28T06:00:55;71.87;;;26.00;;
64619;SDS011;51029;51.058;13.826;2024-02-28T06:03:21;73.03;;;26.27;;
64619;SDS011;51029;51.058;13.826;2024-02-28T06:05:47;70.97;;;25.80;;
64619;SDS011;51029;51.058;13.826;2024-02-28T06:08:13;71.23;;;26.33;;
64619;SDS011;51029;51.058;13.826;2024-02-28T06:10:39;68.43;;;25.77;;
64619;SDS011;51029;51.058;13.826;2024-02-28T06:13:07;70.87;;;27.73;;
64619;SDS011;51029;51.058;13.826;2024-02-28T06:15:33;67.80;;;26.83;;
64619;SDS011;51029;51.058;13.826;2024-02-28T06:17:59;76.23;;;30.57;;
64619;SDS011;51029;51.058;13.826;2024-02-28T06:20:25;71.40;;;29.00;;
64619;SDS011;51029;51.058;13.826;2024-02-28T06:22:51;67.27;;;25.90;;
64619;SDS011;51029;51.058;13.826;2024-02-28T06:25:17;75.07;;;27.27;;
64619;SDS011;51029;51.058;13.826;2024-02-28T06:27:45;73.07;;;26.27;;
64619;SDS011;51029;51.058;13.826;2024-02-28T06:30:11;82.37;;;31.00;;
64619;SDS011;51029;51.058;13.826;2024-02-28T06:32:37;82.73;;;30.17;;
64619;SDS011;51029;51.058;13.826;2024-02-28T06:35:04;74.27;;;26.60;;
64619;SDS011;51029;51.058;13.826;2024-02-28T06:37:30;78.17;;;29.27;;
64619;SDS011;51029;51.058;13.826;2024-02-28T06:39:56;72.23;;;28.17;;
64619;SDS011;51029;51.058;13.826;2024-02-28T06:42:21;76.20;;;26.63;;
64619;SDS011;51029;51.058;13.826;2024-02-28T06:44:47;65.90;;;27.47;;
64619;SDS011;51029;51.058;13.826;2024-02-28T06:47:13;71.40;;;27.43;;
64619;SDS011;51029;51.058;13.826;2024-02-28T06:49:39;65.13;;;27.23;;
64619;SDS011;51029;51.058;13.826;2024-02-28T06:52:05;68.50;;;26.67;;
64619;SDS011;51029;51.058;13.826;2024-02-28T06:54:31;73.67;;;27.23;;
64619;SDS011;51029;51.058;13.826;2024-02-28T06:56:57;81.47;;;28.53;;
64619;SDS011;51029;51.058;13.826;2024-02-28T06:59:23;74.93;;;28.27;;
64619;SDS011;51029;51.058;13.826;2024-02-28T07:01:49;80.67;;;30.50;;
64619;SDS011;51029;51.058;13.826;2024-02-28T07:04:15;84.07;;;31.27;;
64619;SDS011;51029;51.058;13.826;2024-02-28T07:06:42;83.33;;;30.23;;
64619;SDS011;51029;51.058;13.826;2024-02-28T07:09:08;84.27;;;30.63;;
64619;SDS011;51029;51.058;13.826;2024-02-28T07:11:34;81.57;;;30.33;;
64619;SDS011;51029;51.058;13.826;2024-02-28T07:14:00;83.33;;;31.53;;
64619;SDS011;51029;51.058;13.826;2024-02-28T07:16:29;89.57;;;32.43;;
64619;SDS011;51029;51.058;13.826;2024-02-28T07:18:55;79.10;;;30.80;;
64619;SDS011;51029;51.058;13.826;2024-02-28T07:21:21;82.53;;;29.60;;
64619;SDS011;51029;51.058;13.826;2024-02-28T07:23:47;90.80;;;32.03;;
64619;SDS011;51029;51.058;13.826;2024-02-28T07:26:16;82.90;;;30.27;;
64619;SDS011;51029;51.058;13.826;2024-02-28T07:28:42;81.43;;;30.23;;
64619;SDS011;51029;51.058;13.826;2024-02-28T07:31:14;85.93;;;31.40;;
64619;SDS011;51029;51.058;13.826;2024-02-28T07:33:40;82.80;;;30.30;;
64619;SDS011;51029;51.058;13.826;2024-02-28T07:36:06;81.00;;;30.47;;
64619;SDS011;51029;51.058;13.826;2024-02-28T07:38:32;76.87;;;30.37;;
64619;SDS011;51029;51.058;13.826;2024-02-28T07:40:58;78.90;;;30.23;;
64619;SDS011;51029;51.058;13.826;2024-02-28T07:43:24;72.47;;;28.77;;
64619;SDS011;51029;51.058;13.826;2024-02-28T07:45:50;74.23;;;28.80;;
64619;SDS011;51029;51.058;13.826;2024-02-28T07:48:16;68.37;;;27.33;;
64619;SDS011;51029;51.058;13.826;2024-02-28T07:50:45;63.80;;;25.87;;
64619;SDS011;51029;51.058;13.826;2024-02-28T07:53:12;57.77;;;25.40;;
64619;SDS011;51029;51.058;13.826;2024-02-28T07:55:38;48.57;;;22.60;;
64619;SDS011;51029;51.058;13.826;2024-02-28T07:58:04;45.60;;;20.93;;
64619;SDS011;51029;51.058;13.826;2024-02-28T08:00:34;44.47;;;21.40;;
64619;SDS011;51029;51.058;13.826;2024-02-28T08:03:00;47.93;;;21.23;;
64619;SDS011;51029;51.058;13.826;2024-02-28T08:05:26;43.07;;;19.90;;
64619;SDS011;51029;51.058;13.826;2024-02-28T08:07:52;42.70;;;19.67;;
64619;SDS011;51029;51.058;13.826;2024-02-28T08:10:18;44.33;;;19.43;;
64619;SDS011;51029;51.058;13.826;2024-02-28T08:12:44;41.60;;;19.60;;
64619;SDS011;51029;51.058;13.826;2024-02-28T08:15:10;40.37;;;19.93;;
64619;SDS011;51029;51.058;13.826;2024-02-28T08:17:36;47.10;;;21.37;;
64619;SDS011;51029;51.058;13.826;2024-02-28T08:20:03;44.87;;;21.37;;
64619;SDS011;51029;51.058;13.826;2024-02-28T08:22:30;43.30;;;22.57;;
64619;SDS011;51029;51.058;13.826;2024-02-28T08:24:56;44.03;;;22.07;;
64619;SDS011;51029;51.058;13.826;2024-02-28T08:27:22;43.77;;;21.33;;
64619;SDS011;51029;51.058;13.826;2024-02-28T08:29:48;46.03;;;21.87;;
64619;SDS011;51029;51.058;13.826;2024-02-28T08:32:14;47.67;;;21.83;;
64619;SDS011;51029;51.058;13.826;2024-02-28T08:34:44;53.30;;;22.80;;
64619;SDS011;51029;51.058;13.826;2024-02-28T08:37:11;51.10;;;23.23;;
64619;SDS011;51029;51.058;13.826;2024-02-28T08:39:37;55.17;;;24.63;;
64619;SDS011;51029;51.058;13.826;2024-02-28T08:42:03;50.83;;;23.67;;
64619;SDS011;51029;51.058;13.826;2024-02-28T08:44:29;52.07;;;23.93;;
64619;SDS011;51029;51.058;13.826;2024-02-28T08:46:55;48.30;;;22.00;;
64619;SDS011;51029;51.058;13.826;2024-02-28T08:49:20;41.50;;;21.07;;
64619;SDS011;51029;51.058;13.826;2024-02-28T08:51:46;39.77;;;21.07;;
64619;SDS011;51029;51.058;13.826;2024-02-28T08:54:13;41.73;;;20.33;;
64619;SDS011;51029;51.058;13.826;2024-02-28T08:56:39;38.63;;;20.43;;
64619;SDS011;51029;51.058;13.826;2024-02-28T08:59:05;42.23;;;20.50;;
64619;SDS011;51029;51.058;13.826;2024-02-28T09:01:31;40.37;;;20.10;;
64619;SDS011;51029;51.058;13.826;2024-02-28T09:03:58;43.33;;;20.83;;
64619;SDS011;51029;51.058;13.826;2024-02-28T09:06:24;45.93;;;21.80;;
64619;SDS011;51029;51.058;13.826;2024-02-28T09:08:50;41.53;;;21.87;;
64619;SDS011;51029;51.058;13.826;2024-02-28T09:11:16;39.60;;;19.93;;
64619;SDS011;51029;51.058;13.826;2024-02-28T09:13:42;37.13;;;19.50;;
64619;SDS011;51029;51.058;13.826;2024-02-28T09:16:08;39.50;;;20.17;;
64619;SDS011;51029;51.058;13.826;2024-02-28T09:18:34;39.60;;;19.70;;
64619;SDS011;51029;51.058;13.826;2024-02-28T09:21:00;39.83;;;19.37;;
64619;SDS011;51029;51.058;13.826;2024-02-28T09:23:26;38.47;;;19.77;;
64619;SDS011;51029;51.058;13.826;2024-02-28T09:25:52;39.53;;;20.43;;
64619;SDS011;51029;51.058;13.826;2024-02-28T09:28:19;42.40;;;21.30;;
64619;SDS011;51029;51.058;13.826;2024-02-28T09:30:45;39.13;;;20.47;;
64619;SDS011;51029;51.058;13.826;2024-02-28T09:33:12;40.07;;;19.23;;
64619;SDS011;51029;51.058;13.826;2024-02-28T09:35:38;40.87;;;20.77;;
64619;SDS011;51029;51.058;13.826;2024-02-28T09:38:04;38.80;;;19.60;;
64619;SDS011;51029;51.058;13.826;2024-02-28T09:40:30;41.33;;;20.00;;
64619;SDS011;51029;51.058;13.826;2024-02-28T09:43:00;39.97;;;19.93;;
64619;SDS011;51029;51.058;13.826;2024-02-28T09:45:27;39.73;;;18.73;;
64619;SDS011;51029;51.058;13.826;2024-02-28T09:47:56;34.67;;;19.27;;
64619;SDS011;51029;51.058;13.826;2024-02-28T09:50:22;36.43;;;19.03;;
64619;SDS011;51029;51.058;13.826;2024-02-28T09:52:48;33.87;;;19.13;;
64619;SDS011;51029;51.058;13.826;2024-02-28T09:55:14;34.20;;;19.40;;
64619;SDS011;51029;51.058;13.826;2024-02-28T09:57:40;36.03;;;19.50;;
64619;SDS011;51029;51.058;13.826;2024-02-28T10:00:08;34.17;;;19.70;;
64619;SDS011;51029;51.058;13.826;2024-02-28T10:02:35;34.40;;;20.30;;
64619;SDS011;51029;51.058;13.826;2024-02-28T10:05:03;34.63;;;19.13;;
64619;SDS011;51029;51.058;13.826;2024-02-28T10:07:29;38.03;;;20.47;;
64619;SDS011;51029;51.058;13.826;2024-02-28T10:09:56;40.27;;;21.77;;
64619;SDS011;51029;51.058;13.826;2024-02-28T10:12:22;44.53;;;22.37;;
64619;SDS011;51029;51.058;13.826;2024-02-28T10:14:51;45.53;;;23.97;;
64619;SDS011;51029;51.058;13.826;2024-02-28T10:17:17;48.27;;;25.93;;
64619;SDS011;51029;51.058;13.826;2024-02-28T10:19:43;43.97;;;22.80;;
64619;SDS011;51029;51.058;13.826;2024-02-28T10:22:09;40.97;;;20.70;;
64619;SDS011;51029;51.058;13.826;2024-02-28T10:24:35;40.77;;;22.53;;
64619;SDS011;51029;51.058;13.826;2024-02-28T10:27:02;40.30;;;23.43;;
64619;SDS011;51029;51.058;13.826;2024-02-28T10:29:28;42.83;;;23.07;;
64619;SDS011;51029;51.058;13.826;2024-02-28T10:31:57;40.80;;;22.20;;
64619;SDS011;51029;51.058;13.826;2024-02-28T10:34:23;41.40;;;22.67;;
64619;SDS011;51029;51.058;13.826;2024-02-28T10:36:49;41.97;;;23.30;;
64619;SDS011;51029;51.058;13.826;2024-02-28T10:39:15;42.60;;;22.40;;
64619;SDS011;51029;51.058;13.826;2024-02-28T10:41:42;43.37;;;23.83;;
64619;SDS011;51029;51.058;13.826;2024-02-28T10:44:08;43.03;;;23.33;;
64619;SDS011;51029;51.058;13.826;2024-02-28T10:46:37;42.77;;;25.97;;
64619;SDS011;51029;51.058;13.826;2024-02-28T10:49:04;37.87;;;22.07;;
64619;SDS011;51029;51.058;13.826;2024-02-28T10:51:30;35.53;;;20.47;;
64619;SDS011;51029;51.058;13.826;2024-02-28T10:54:02;36.13;;;20.63;;
64619;SDS011;51029;51.058;13.826;2024-02-28T10:56:30;31.43;;;19.60;;
64619;SDS011;51029;51.058;13.826;2024-02-28T10:58:57;33.27;;;19.37;;
64619;SDS011;51029;51.058;13.826;2024-02-28T11:01:23;33.30;;;19.30;;
64619;SDS011;51029;51.058;13.826;2024-02-28T11:03:50;36.07;;;20.63;;
64619;SDS011;51029;51.058;13.826;2024-02-28T11:06:20;37.80;;;21.80;;
64619;SDS011;51029;51.058;13.826;2024-02-28T11:08:49;39.03;;;22.37;;
64619;SDS011;51029;51.058;13.826;2024-02-28T11:11:19;36.53;;;21.87;;
64619;SDS011;51029;51.058;13.826;2024-02-28T11:13:56;40.60;;;22.90;;
64619;SDS011;51029;51.058;13.826;2024-02-28T11:16:30;42.93;;;23.80;;
64619;SDS011;51029;51.058;13.826;2024-02-28T11:18:56;39.37;;;22.47;;
64619;SDS011;51029;51.058;13.826;2024-02-28T11:21:22;47.03;;;26.53;;
64619;SDS011;51029;51.058;13.826;2024-02-28T11:23:49;51.47;;;29.13;;
64619;SDS011;51029;51.058;13.826;2024-02-28T11:26:15;48.60;;;27.47;;
64619;SDS011;51029;51.058;13.826;2024-02-28T11:28:41;46.17;;;26.73;;
64619;SDS011;51029;51.058;13.826;2024-02-28T11:31:08;46.70;;;26.13;;
64619;SDS011;51029;51.058;13.826;2024-02-28T11:33:37;50.03;;;26.13;;
64619;SDS011;51029;51.058;13.826;2024-02-28T11:36:03;48.20;;;25.13;;
64619;SDS011;51029;51.058;13.826;2024-02-28T11:38:30;42.63;;;24.23;;
64619;SDS011;51029;51.058;13.826;2024-02-28T11:40:56;42.17;;;24.40;;
64619;SDS011;51029;51.058;13.826;2024-02-28T11:43:22;44.10;;;24.83;;
64619;SDS011;51029;51.058;13.826;2024-02-28T11:45:48;44.53;;;23.60;;
64619;SDS011;51029;51.058;13.826;2024-02-28T11:48:15;36.90;;;22.40;;
64619;SDS011;51029;51.058;13.826;2024-02-28T11:50:41;45.50;;;25.10;;
64619;SDS011;51029;51.058;13.826;2024-02-28T11:53:07;39.60;;;23.53;;
64619;SDS011;51029;51.058;13.826;2024-02-28T11:55:34;34.63;;;21.27;;
64619;SDS011;51029;51.058;13.826;2024-02-28T11:58:00;35.17;;;21.30;;
64619;SDS011;51029;51.058;13.826;2024-02-28T12:00:26;35.43;;;21.13;;
64619;SDS011;51029;51.058;13.826;2024-02-28T12:02:52;32.27;;;20.00;;
64619;SDS011;51029;51.058;13.826;2024-02-28T12:05:21;30.33;;;19.37;;
64619;SDS011;51029;51.058;13.826;2024-02-28T12:07:47;29.63;;;19.40;;
64619;SDS011;51029;51.058;13.826;2024-02-28T12:10:13;31.87;;;20.17;;
64619;SDS011;51029;51.058;13.826;2024-02-28T12:12:40;30.47;;;19.23;;
64619;SDS011;51029;51.058;13.826;2024-02-28T12:15:06;34.10;;;19.87;;
64619;SDS011;51029;51.058;13.826;2024-02-28T12:17:33;34.33;;;21.20;;
64619;SDS011;51029;51.058;13.826;2024-02-28T12:19:59;29.87;;;19.43;;
64619;SDS011;51029;51.058;13.826;2024-02-28T12:22:25;29.77;;;19.60;;
64619;SDS011;51029;51.058;13.826;2024-02-28T12:24:51;29.90;;;18.57;;
64619;SDS011;51029;51.058;13.826;2024-02-28T12:27:18;32.00;;;18.13;;
64619;SDS011;51029;51.058;13.826;2024-02-28T12:29:44;30.80;;;19.87;;
64619;SDS011;51029;51.058;13.826;2024-02-28T12:32:10;29.63;;;18.00;;
64619;SDS011;51029;51.058;13.826;2024-02-28T12:34:37;29.77;;;19.17;;
64619;SDS011;51029;51.058;13.826;2024-02-28T12:37:03;33.83;;;18.47;;
64619;SDS011;51029;51.058;13.826;2024-02-28T12:39:30;31.60;;;19.20;;
64619;SDS011;51029;51.058;13.826;2024-02-28T12:41:59;28.70;;;18.43;;
64619;SDS011;51029;51.058;13.826;2024-02-28T12:44:25;32.90;;;21.20;;
64619;SDS011;51029;51.058;13.826;2024-02-28T12:46:51;33.37;;;20.93;;
64619;SDS011;51029;51.058;13.826;2024-02-28T12:49:17;32.23;;;19.90;;
64619;SDS011;51029;51.058;13.826;2024-02-28T12:51:43;34.80;;;20.13;;
64619;SDS011;51029;51.058;13.826;2024-02-28T12:54:10;31.83;;;20.63;;
64619;SDS011;51029;51.058;13.826;2024-02-28T12:56:37;31.57;;;21.37;;
64619;SDS011;51029;51.058;13.826;2024-02-28T12:59:04;32.40;;;20.87;;
64619;SDS011;51029;51.058;13.826;2024-02-28T13:01:32;33.93;;;22.03;;
64619;SDS011;51029;51.058;13.826;2024-02-28T13:03:58;31.40;;;20.97;;
64619;SDS011;51029;51.058;13.826;2024-02-28T13:06:24;35.40;;;22.00;;
64619;SDS011;51029;51.058;13.826;2024-02-28T13:08:50;34.13;;;20.93;;
64619;SDS011;51029;51.058;13.826;2024-02-28T13:11:19;35.27;;;22.27;;
64619;SDS011;51029;51.058;13.826;2024-02-28T13:13:45;37.00;;;24.10;;
64619;SDS011;51029;51.058;13.826;2024-02-28T13:16:12;38.57;;;25.40;;
64619;SDS011;51029;51.058;13.826;2024-02-28T13:18:38;36.57;;;22.97;;
64619;SDS011;51029;51.058;13.826;2024-02-28T13:21:04;34.73;;;22.63;;
64619;SDS011;51029;51.058;13.826;2024-02-28T13:23:30;35.30;;;22.40;;
64619;SDS011;51029;51.058;13.826;2024-02-28T13:25:56;32.33;;;21.37;;
64619;SDS011;51029;51.058;13.826;2024-02-28T13:28:22;32.10;;;21.90;;
64619;SDS011;51029;51.058;13.826;2024-02-28T13:30:57;36.17;;;23.27;;
64619;SDS011;51029;51.058;13.826;2024-02-28T13:33:23;40.20;;;24.17;;
64619;SDS011;51029;51.058;13.826;2024-02-28T13:35:50;35.53;;;23.20;;
64619;SDS011;51029;51.058;13.826;2024-02-28T13:38:16;36.27;;;25.83;;
64619;SDS011;51029;51.058;13.826;2024-02-28T13:40:42;33.00;;;21.83;;
64619;SDS011;51029;51.058;13.826;2024-02-28T13:43:10;34.47;;;22.80;;
64619;SDS011;51029;51.058;13.826;2024-02-28T13:45:36;36.70;;;22.40;;
64619;SDS011;51029;51.058;13.826;2024-02-28T13:48:14;37.00;;;23.17;;
64619;SDS011;51029;51.058;13.826;2024-02-28T13:50:40;31.67;;;22.30;;
64619;SDS011;51029;51.058;13.826;2024-02-28T13:53:06;31.83;;;22.10;;
64619;SDS011;51029;51.058;13.826;2024-02-28T13:55:32;33.23;;;23.50;;
64619;SDS011;51029;51.058;13.826;2024-02-28T13:57:58;30.50;;;22.67;;
64619;SDS011;51029;51.058;13.826;2024-02-28T14:00:24;31.47;;;22.60;;
64619;SDS011;51029;51.058;13.826;2024-02-28T14:02:50;31.33;;;23.30;;